sensor_id;sensor_type;location;lat;lon;timestamp;P1;durP1;ratioP1;P2;durP2;ratioP2
81191;SDS011;70665;47.652;-2.730;2024-02-21T00:01:39;4.28;;;1.42;;
81191;SDS011;70665;47.652;-2.730;2024-02-21T00:04:04;5.95;;;1.77;;
81191;SDS011;70665;47.652;-2.730;2024-02-21T00:06:31;4.68;;;1.45;;
81191;SDS011;70665;47.652;-2.730;2024-02-21T00:08:57;7.53;;;1.25;;
81191;SDS011;70665;47.652;-2.730;2024-02-21T00:11:23;8.43;;;1.50;;
81191;SDS011;70665;47.652;-2.730;2024-02-21T00:13:48;5.82;;;1.50;;
81191;SDS011;70665;47.652;-2.730;2024-02-21T00:16:15;5.90;;;1.70;;
81191;SDS011;70665;47.652;-2.730;2024-02-21T00:18:41;4.50;;;1.65;;
81191;SDS011;70665;47.652;-2.730;2024-02-21T00:21:07;7.57;;;1.73;;
81191;SDS011;70665;47.652;-2.730;2024-02-21T00:23:32;7.35;;;1.70;;
81191;SDS011;70665;47.652;-2.730;2024-02-21T00:25:58;5.20;;;1.60;;
81191;SDS011;70665;47.652;-2.730;2024-02-21T00:28:24;6.88;;;1.90;;
81191;SDS011;70665;47.652;-2.730;2024-02-21T00:30:49;6.47;;;1.77;;
81191;SDS011;70665;47.652;-2.730;2024-02-21T00:33:19;8.98;;;1.20;;
81191;SDS011;70665;47.652;-2.730;2024-02-21T00:35:44;6.97;;;1.70;;
81191;SDS011;70665;47.652;-2.730;2024-02-21T00:38:10;8.90;;;2.80;;
81191;SDS011;70665;47.652;-2.730;2024-02-21T00:40:35;6.80;;;1.67;;
81191;SDS011;70665;47.652;-2.730;2024-02-21T00:43:01;4.32;;;1.73;;
81191;SDS011;70665;47.652;-2.730;2024-02-21T00:47:53;5.32;;;1.40;;
81191;SDS011;70665;47.652;-2.730;2024-02-21T00:50:18;6.65;;;1.70;;
81191;SDS011;70665;47.652;-2.730;2024-02-21T00:52:44;7.50;;;1.48;;
81191;SDS011;70665;47.652;-2.730;2024-02-21T00:55:10;11.55;;;2.63;;
81191;SDS011;70665;47.652;-2.730;2024-02-21T00:57:35;7.45;;;2.05;;
81191;SDS011;70665;47.652;-2.730;2024-02-21T01:00:04;6.85;;;1.73;;
81191;SDS011;70665;47.652;-2.730;2024-02-21T01:02:30;8.57;;;1.70;;
81191;SDS011;70665;47.652;-2.730;2024-02-21T01:04:57;10.00;;;1.80;;
81191;SDS011;70665;47.652;-2.730;2024-02-21T01:07:23;3.78;;;1.42;;
81191;SDS011;70665;47.652;-2.730;2024-02-21T01:09:49;13.60;;;1.73;;
81191;SDS011;70665;47.652;-2.730;2024-02-21T01:12:16;8.07;;;1.85;;
81191;SDS011;70665;47.652;-2.730;2024-02-21T01:14:41;5.05;;;1.38;;
81191;SDS011;70665;47.652;-2.730;2024-02-21T01:17:07;6.88;;;1.63;;
81191;SDS011;70665;47.652;-2.730;2024-02-21T01:19:33;9.15;;;2.10;;
81191;SDS011;70665;47.652;-2.730;2024-02-21T01:21:59;3.03;;;1.70;;
81191;SDS011;70665;47.652;-2.730;2024-02-21T01:24:24;12.80;;;1.58;;
81191;SDS011;70665;47.652;-2.730;2024-02-21T01:26:50;9.30;;;1.50;;
81191;SDS011;70665;47.652;-2.730;2024-02-21T01:29:15;8.25;;;1.42;;
81191;SDS011;70665;47.652;-2.730;2024-02-21T01:31:41;9.77;;;1.73;;
81191;SDS011;70665;47.652;-2.730;2024-02-21T01:34:07;8.88;;;1.70;;
81191;SDS011;70665;47.652;-2.730;2024-02-21T01:36:33;6.45;;;1.73;;
81191;SDS011;70665;47.652;-2.730;2024-02-21T01:38:59;11.98;;;1.95;;
81191;SDS011;70665;47.652;-2.730;2024-02-21T01:41:24;6.60;;;1.65;;
81191;SDS011;70665;47.652;-2.730;2024-02-21T01:43:50;7.50;;;1.52;;
81191;SDS011;70665;47.652;-2.730;2024-02-21T01:46:16;11.52;;;1.95;;
81191;SDS011;70665;47.652;-2.730;2024-02-21T01:48:41;10.02;;;1.60;;
81191;SDS011;70665;47.652;-2.730;2024-02-21T01:51:07;9.68;;;1.40;;
81191;SDS011;70665;47.652;-2.730;2024-02-21T01:53:37;11.20;;;1.75;;
81191;SDS011;70665;47.652;-2.730;2024-02-21T01:56:07;10.52;;;1.90;;
81191;SDS011;70665;47.652;-2.730;2024-02-21T01:58:33;8.85;;;1.83;;
81191;SDS011;70665;47.652;-2.730;2024-02-21T02:01:05;8.43;;;1.38;;
81191;SDS011;70665;47.652;-2.730;2024-02-21T02:03:31;8.30;;;1.75;;
81191;SDS011;70665;47.652;-2.730;2024-02-21T02:05:56;5.95;;;1.42;;
81191;SDS011;70665;47.652;-2.730;2024-02-21T02:08:22;4.65;;;1.55;;
81191;SDS011;70665;47.652;-2.730;2024-02-21T02:10:48;7.07;;;1.42;;
81191;SDS011;70665;47.652;-2.730;2024-02-21T02:13:14;10.93;;;2.42;;
81191;SDS011;70665;47.652;-2.730;2024-02-21T02:18:06;6.55;;;1.30;;
81191;SDS011;70665;47.652;-2.730;2024-02-21T02:20:32;8.18;;;1.67;;
81191;SDS011;70665;47.652;-2.730;2024-02-21T02:22:59;9.43;;;1.58;;
81191;SDS011;70665;47.652;-2.730;2024-02-21T02:25:25;8.27;;;1.65;;
81191;SDS011;70665;47.652;-2.730;2024-02-21T02:27:52;5.60;;;1.30;;
81191;SDS011;70665;47.652;-2.730;2024-02-21T02:30:18;5.03;;;1.55;;
81191;SDS011;70665;47.652;-2.730;2024-02-21T02:32:44;6.88;;;1.35;;
81191;SDS011;70665;47.652;-2.730;2024-02-21T02:35:11;3.45;;;1.05;;
81191;SDS011;70665;47.652;-2.730;2024-02-21T02:37:37;5.50;;;1.25;;
81191;SDS011;70665;47.652;-2.730;2024-02-21T02:40:04;7.47;;;1.40;;
81191;SDS011;70665;47.652;-2.730;2024-02-21T02:42:31;7.88;;;1.35;;
81191;SDS011;70665;47.652;-2.730;2024-02-21T02:44:57;5.75;;;1.10;;
81191;SDS011;70665;47.652;-2.730;2024-02-21T02:47:23;12.52;;;1.40;;
81191;SDS011;70665;47.652;-2.730;2024-02-21T02:49:48;6.40;;;1.52;;
81191;SDS011;70665;47.652;-2.730;2024-02-21T02:52:16;4.45;;;1.42;;
81191;SDS011;70665;47.652;-2.730;2024-02-21T02:54:42;6.22;;;1.20;;
81191;SDS011;70665;47.652;-2.730;2024-02-21T02:57:08;6.30;;;1.17;;
81191;SDS011;70665;47.652;-2.730;2024-02-21T02:59:34;3.55;;;0.93;;
81191;SDS011;70665;47.652;-2.730;2024-02-21T03:02:00;8.38;;;1.45;;
81191;SDS011;70665;47.652;-2.730;2024-02-21T03:04:26;7.43;;;1.90;;
81191;SDS011;70665;47.652;-2.730;2024-02-21T03:06:51;4.65;;;1.13;;
81191;SDS011;70665;47.652;-2.730;2024-02-21T03:09:17;9.63;;;1.77;;
81191;SDS011;70665;47.652;-2.730;2024-02-21T03:11:43;5.30;;;1.33;;
81191;SDS011;70665;47.652;-2.730;2024-02-21T03:16:35;7.05;;;1.13;;
81191;SDS011;70665;47.652;-2.730;2024-02-21T03:19:00;8.52;;;1.08;;
81191;SDS011;70665;47.652;-2.730;2024-02-21T03:21:26;6.88;;;1.10;;
81191;SDS011;70665;47.652;-2.730;2024-02-21T03:23:51;6.78;;;1.30;;
81191;SDS011;70665;47.652;-2.730;2024-02-21T03:26:17;6.80;;;1.13;;
81191;SDS011;70665;47.652;-2.730;2024-02-21T03:28:43;8.73;;;1.33;;
81191;SDS011;70665;47.652;-2.730;2024-02-21T03:31:12;9.52;;;1.60;;
81191;SDS011;70665;47.652;-2.730;2024-02-21T03:33:39;5.97;;;1.10;;
81191;SDS011;70665;47.652;-2.730;2024-02-21T03:36:12;6.53;;;1.75;;
81191;SDS011;70665;47.652;-2.730;2024-02-21T03:38:39;7.72;;;1.70;;
81191;SDS011;70665;47.652;-2.730;2024-02-21T03:41:05;3.83;;;1.00;;
81191;SDS011;70665;47.652;-2.730;2024-02-21T03:43:30;4.68;;;1.15;;
81191;SDS011;70665;47.652;-2.730;2024-02-21T03:45:56;7.20;;;1.33;;
81191;SDS011;70665;47.652;-2.730;2024-02-21T03:48:22;8.98;;;1.40;;
81191;SDS011;70665;47.652;-2.730;2024-02-21T03:50:47;5.03;;;1.13;;
81191;SDS011;70665;47.652;-2.730;2024-02-21T03:53:13;6.00;;;1.30;;
81191;SDS011;70665;47.652;-2.730;2024-02-21T03:55:39;4.05;;;1.25;;
81191;SDS011;70665;47.652;-2.730;2024-02-21T03:58:04;6.40;;;1.30;;
81191;SDS011;70665;47.652;-2.730;2024-02-21T04:00:30;8.57;;;1.70;;
81191;SDS011;70665;47.652;-2.730;2024-02-21T04:02:55;4.82;;;1.23;;
81191;SDS011;70665;47.652;-2.730;2024-02-21T04:05:21;9.00;;;1.23;;
81191;SDS011;70665;47.652;-2.730;2024-02-21T04:07:47;6.78;;;1.52;;
81191;SDS011;70665;47.652;-2.730;2024-02-21T04:10:13;4.07;;;1.10;;
81191;SDS011;70665;47.652;-2.730;2024-02-21T04:12:38;6.85;;;1.10;;
81191;SDS011;70665;47.652;-2.730;2024-02-21T04:15:04;7.38;;;1.20;;
81191;SDS011;70665;47.652;-2.730;2024-02-21T04:17:30;4.20;;;1.10;;
81191;SDS011;70665;47.652;-2.730;2024-02-21T04:20:01;8.75;;;1.40;;
81191;SDS011;70665;47.652;-2.730;2024-02-21T04:22:33;6.13;;;1.77;;
81191;SDS011;70665;47.652;-2.730;2024-02-21T04:24:59;6.20;;;1.38;;
81191;SDS011;70665;47.652;-2.730;2024-02-21T04:27:25;12.20;;;1.80;;
81191;SDS011;70665;47.652;-2.730;2024-02-21T04:29:51;6.95;;;1.67;;
81191;SDS011;70665;47.652;-2.730;2024-02-21T04:32:18;7.75;;;2.45;;
81191;SDS011;70665;47.652;-2.730;2024-02-21T04:34:46;8.30;;;2.22;;
81191;SDS011;70665;47.652;-2.730;2024-02-21T04:37:12;7.13;;;1.60;;
81191;SDS011;70665;47.652;-2.730;2024-02-21T04:39:37;6.28;;;1.63;;
81191;SDS011;70665;47.652;-2.730;2024-02-21T04:42:03;6.40;;;1.70;;
81191;SDS011;70665;47.652;-2.730;2024-02-21T04:44:29;8.05;;;1.30;;
81191;SDS011;70665;47.652;-2.730;2024-02-21T04:46:54;8.30;;;1.30;;
81191;SDS011;70665;47.652;-2.730;2024-02-21T04:49:20;5.07;;;1.30;;
81191;SDS011;70665;47.652;-2.730;2024-02-21T04:51:47;7.47;;;1.23;;
81191;SDS011;70665;47.652;-2.730;2024-02-21T04:54:12;6.47;;;1.50;;
81191;SDS011;70665;47.652;-2.730;2024-02-21T04:56:38;8.18;;;1.38;;
81191;SDS011;70665;47.652;-2.730;2024-02-21T04:59:03;5.88;;;1.25;;
81191;SDS011;70665;47.652;-2.730;2024-02-21T05:01:29;12.43;;;1.70;;
81191;SDS011;70665;47.652;-2.730;2024-02-21T05:03:55;4.65;;;1.20;;
81191;SDS011;70665;47.652;-2.730;2024-02-21T05:08:46;6.07;;;1.80;;
81191;SDS011;70665;47.652;-2.730;2024-02-21T05:11:12;9.38;;;1.45;;
81191;SDS011;70665;47.652;-2.730;2024-02-21T05:13:38;10.93;;;1.45;;
81191;SDS011;70665;47.652;-2.730;2024-02-21T05:16:04;9.85;;;1.63;;
81191;SDS011;70665;47.652;-2.730;2024-02-21T05:18:30;8.88;;;1.20;;
81191;SDS011;70665;47.652;-2.730;2024-02-21T05:20:55;8.00;;;1.90;;
81191;SDS011;70665;47.652;-2.730;2024-02-21T05:23:21;10.43;;;1.55;;
81191;SDS011;70665;47.652;-2.730;2024-02-21T05:25:47;10.57;;;1.75;;
81191;SDS011;70665;47.652;-2.730;2024-02-21T05:28:13;14.13;;;2.55;;
81191;SDS011;70665;47.652;-2.730;2024-02-21T05:30:38;6.60;;;1.33;;
81191;SDS011;70665;47.652;-2.730;2024-02-21T05:33:06;14.75;;;1.70;;
81191;SDS011;70665;47.652;-2.730;2024-02-21T05:35:32;8.50;;;1.45;;
81191;SDS011;70665;47.652;-2.730;2024-02-21T05:37:57;11.75;;;2.03;;
81191;SDS011;70665;47.652;-2.730;2024-02-21T05:40:24;6.40;;;1.48;;
81191;SDS011;70665;47.652;-2.730;2024-02-21T05:42:50;8.35;;;1.60;;
81191;SDS011;70665;47.652;-2.730;2024-02-21T05:45:17;9.80;;;1.58;;
81191;SDS011;70665;47.652;-2.730;2024-02-21T05:47:43;15.00;;;2.80;;
81191;SDS011;70665;47.652;-2.730;2024-02-21T05:50:09;11.70;;;1.67;;
81191;SDS011;70665;47.652;-2.730;2024-02-21T05:52:35;12.68;;;2.45;;
81191;SDS011;70665;47.652;-2.730;2024-02-21T05:55:01;11.32;;;1.75;;
81191;SDS011;70665;47.652;-2.730;2024-02-21T05:57:27;16.17;;;2.22;;
81191;SDS011;70665;47.652;-2.730;2024-02-21T05:59:52;21.02;;;2.83;;
81191;SDS011;70665;47.652;-2.730;2024-02-21T06:02:18;12.75;;;3.03;;
81191;SDS011;70665;47.652;-2.730;2024-02-21T06:04:44;6.63;;;1.55;;
81191;SDS011;70665;47.652;-2.730;2024-02-21T06:07:11;11.35;;;1.90;;
81191;SDS011;70665;47.652;-2.730;2024-02-21T06:09:37;9.32;;;2.22;;
81191;SDS011;70665;47.652;-2.730;2024-02-21T06:12:02;10.25;;;1.90;;
81191;SDS011;70665;47.652;-2.730;2024-02-21T06:14:28;10.20;;;2.05;;
81191;SDS011;70665;47.652;-2.730;2024-02-21T06:16:54;9.75;;;2.45;;
81191;SDS011;70665;47.652;-2.730;2024-02-21T06:19:19;10.85;;;2.10;;
81191;SDS011;70665;47.652;-2.730;2024-02-21T06:21:45;14.88;;;2.10;;
81191;SDS011;70665;47.652;-2.730;2024-02-21T06:24:11;16.40;;;2.00;;
81191;SDS011;70665;47.652;-2.730;2024-02-21T06:26:37;16.33;;;2.00;;
81191;SDS011;70665;47.652;-2.730;2024-02-21T06:29:05;17.13;;;2.20;;
81191;SDS011;70665;47.652;-2.730;2024-02-21T06:31:30;11.40;;;2.20;;
81191;SDS011;70665;47.652;-2.730;2024-02-21T06:36:22;15.10;;;2.20;;
81191;SDS011;70665;47.652;-2.730;2024-02-21T06:38:48;11.27;;;2.15;;
81191;SDS011;70665;47.652;-2.730;2024-02-21T06:41:17;10.93;;;2.22;;
81191;SDS011;70665;47.652;-2.730;2024-02-21T06:43:44;12.40;;;2.30;;
81191;SDS011;70665;47.652;-2.730;2024-02-21T06:46:11;9.32;;;3.05;;
81191;SDS011;70665;47.652;-2.730;2024-02-21T06:48:36;8.15;;;2.10;;
81191;SDS011;70665;47.652;-2.730;2024-02-21T06:51:02;16.60;;;3.17;;
81191;SDS011;70665;47.652;-2.730;2024-02-21T06:53:28;18.23;;;2.58;;
81191;SDS011;70665;47.652;-2.730;2024-02-21T06:55:54;14.50;;;2.60;;
81191;SDS011;70665;47.652;-2.730;2024-02-21T06:58:20;11.25;;;2.50;;
81191;SDS011;70665;47.652;-2.730;2024-02-21T07:00:45;12.70;;;2.15;;
81191;SDS011;70665;47.652;-2.730;2024-02-21T07:03:11;11.93;;;2.35;;
81191;SDS011;70665;47.652;-2.730;2024-02-21T07:05:37;16.38;;;2.88;;
81191;SDS011;70665;47.652;-2.730;2024-02-21T07:08:02;11.07;;;2.17;;
81191;SDS011;70665;47.652;-2.730;2024-02-21T07:12:54;11.65;;;2.80;;
81191;SDS011;70665;47.652;-2.730;2024-02-21T07:15:20;11.13;;;2.47;;
81191;SDS011;70665;47.652;-2.730;2024-02-21T07:17:46;16.77;;;3.30;;
81191;SDS011;70665;47.652;-2.730;2024-02-21T07:20:12;11.27;;;3.13;;
81191;SDS011;70665;47.652;-2.730;2024-02-21T07:25:03;12.85;;;2.53;;
81191;SDS011;70665;47.652;-2.730;2024-02-21T07:29:57;12.35;;;3.25;;
81191;SDS011;70665;47.652;-2.730;2024-02-21T07:32:22;10.50;;;2.83;;
81191;SDS011;70665;47.652;-2.730;2024-02-21T07:34:48;11.20;;;2.45;;
81191;SDS011;70665;47.652;-2.730;2024-02-21T07:37:14;12.63;;;3.40;;
81191;SDS011;70665;47.652;-2.730;2024-02-21T07:39:39;14.00;;;2.65;;
81191;SDS011;70665;47.652;-2.730;2024-02-21T07:42:06;16.90;;;3.10;;
81191;SDS011;70665;47.652;-2.730;2024-02-21T07:44:31;13.40;;;2.53;;
81191;SDS011;70665;47.652;-2.730;2024-02-21T07:49:23;11.85;;;2.38;;
81191;SDS011;70665;47.652;-2.730;2024-02-21T07:51:49;14.90;;;2.75;;
81191;SDS011;70665;47.652;-2.730;2024-02-21T07:54:15;9.27;;;1.98;;
81191;SDS011;70665;47.652;-2.730;2024-02-21T07:56:41;14.25;;;2.63;;
81191;SDS011;70665;47.652;-2.730;2024-02-21T07:59:06;13.50;;;2.60;;
81191;SDS011;70665;47.652;-2.730;2024-02-21T08:01:32;16.08;;;3.80;;
81191;SDS011;70665;47.652;-2.730;2024-02-21T08:03:58;18.90;;;3.75;;
81191;SDS011;70665;47.652;-2.730;2024-02-21T08:06:24;19.80;;;2.60;;
81191;SDS011;70665;47.652;-2.730;2024-02-21T08:08:50;12.35;;;3.30;;
81191;SDS011;70665;47.652;-2.730;2024-02-21T08:11:18;22.30;;;3.08;;
81191;SDS011;70665;47.652;-2.730;2024-02-21T08:13:49;24.85;;;2.90;;
81191;SDS011;70665;47.652;-2.730;2024-02-21T08:18:40;10.73;;;2.33;;
81191;SDS011;70665;47.652;-2.730;2024-02-21T08:21:08;19.83;;;3.05;;
81191;SDS011;70665;47.652;-2.730;2024-02-21T08:23:34;10.93;;;2.53;;
81191;SDS011;70665;47.652;-2.730;2024-02-21T08:25:59;13.50;;;2.40;;
81191;SDS011;70665;47.652;-2.730;2024-02-21T08:28:27;17.77;;;2.88;;
81191;SDS011;70665;47.652;-2.730;2024-02-21T08:30:53;16.33;;;3.00;;
81191;SDS011;70665;47.652;-2.730;2024-02-21T08:33:19;12.10;;;3.50;;
81191;SDS011;70665;47.652;-2.730;2024-02-21T08:35:49;14.95;;;3.85;;
81191;SDS011;70665;47.652;-2.730;2024-02-21T08:38:15;14.52;;;2.95;;
81191;SDS011;70665;47.652;-2.730;2024-02-21T08:40:40;18.67;;;3.35;;
81191;SDS011;70665;47.652;-2.730;2024-02-21T08:43:06;16.15;;;2.55;;
81191;SDS011;70665;47.652;-2.730;2024-02-21T08:45:32;13.02;;;2.53;;
81191;SDS011;70665;47.652;-2.730;2024-02-21T08:47:57;14.40;;;3.78;;
81191;SDS011;70665;47.652;-2.730;2024-02-21T08:50:23;18.98;;;4.07;;
81191;SDS011;70665;47.652;-2.730;2024-02-21T08:52:48;14.07;;;2.80;;
81191;SDS011;70665;47.652;-2.730;2024-02-21T08:57:40;17.38;;;2.67;;
81191;SDS011;70665;47.652;-2.730;2024-02-21T09:00:06;18.52;;;3.20;;
81191;SDS011;70665;47.652;-2.730;2024-02-21T09:02:40;11.73;;;2.90;;
81191;SDS011;70665;47.652;-2.730;2024-02-21T09:05:09;10.52;;;2.63;;
81191;SDS011;70665;47.652;-2.730;2024-02-21T09:10:01;15.35;;;3.20;;
81191;SDS011;70665;47.652;-2.730;2024-02-21T09:12:27;15.73;;;3.08;;
81191;SDS011;70665;47.652;-2.730;2024-02-21T09:14:54;17.27;;;3.13;;
81191;SDS011;70665;47.652;-2.730;2024-02-21T09:17:19;20.23;;;3.55;;
81191;SDS011;70665;47.652;-2.730;2024-02-21T09:19:50;18.65;;;3.55;;
81191;SDS011;70665;47.652;-2.730;2024-02-21T09:22:16;17.52;;;3.55;;
81191;SDS011;70665;47.652;-2.730;2024-02-21T09:24:41;16.33;;;3.47;;
81191;SDS011;70665;47.652;-2.730;2024-02-21T09:27:07;16.00;;;3.42;;
81191;SDS011;70665;47.652;-2.730;2024-02-21T09:31:59;20.55;;;3.78;;
81191;SDS011;70665;47.652;-2.730;2024-02-21T09:34:24;11.90;;;3.13;;
81191;SDS011;70665;47.652;-2.730;2024-02-21T09:36:50;12.00;;;3.47;;
81191;SDS011;70665;47.652;-2.730;2024-02-21T09:39:16;16.90;;;3.92;;
81191;SDS011;70665;47.652;-2.730;2024-02-21T09:41:45;13.20;;;3.53;;
81191;SDS011;70665;47.652;-2.730;2024-02-21T09:44:18;18.08;;;3.47;;
81191;SDS011;70665;47.652;-2.730;2024-02-21T09:46:49;10.23;;;2.80;;
81191;SDS011;70665;47.652;-2.730;2024-02-21T09:49:34;18.25;;;3.42;;
81191;SDS011;70665;47.652;-2.730;2024-02-21T09:52:06;13.20;;;3.78;;
81191;SDS011;70665;47.652;-2.730;2024-02-21T09:54:35;16.00;;;3.67;;
81191;SDS011;70665;47.652;-2.730;2024-02-21T09:57:01;16.17;;;4.22;;
81191;SDS011;70665;47.652;-2.730;2024-02-21T09:59:31;12.32;;;2.90;;
81191;SDS011;70665;47.652;-2.730;2024-02-21T10:01:58;12.68;;;3.45;;
81191;SDS011;70665;47.652;-2.730;2024-02-21T10:04:25;12.15;;;3.75;;
81191;SDS011;70665;47.652;-2.730;2024-02-21T10:06:51;13.63;;;3.42;;
81191;SDS011;70665;47.652;-2.730;2024-02-21T10:09:23;14.93;;;3.50;;
81191;SDS011;70665;47.652;-2.730;2024-02-21T10:11:50;13.80;;;4.15;;
81191;SDS011;70665;47.652;-2.730;2024-02-21T10:14:16;14.75;;;3.33;;
81191;SDS011;70665;47.652;-2.730;2024-02-21T10:16:55;16.63;;;3.65;;
81191;SDS011;70665;47.652;-2.730;2024-02-21T10:19:24;10.90;;;3.22;;
81191;SDS011;70665;47.652;-2.730;2024-02-21T10:22:02;8.07;;;2.80;;
81191;SDS011;70665;47.652;-2.730;2024-02-21T10:24:29;12.45;;;3.08;;
81191;SDS011;70665;47.652;-2.730;2024-02-21T10:27:05;14.13;;;4.53;;
81191;SDS011;70665;47.652;-2.730;2024-02-21T10:29:37;15.73;;;3.35;;
81191;SDS011;70665;47.652;-2.730;2024-02-21T10:32:04;12.77;;;3.83;;
81191;SDS011;70665;47.652;-2.730;2024-02-21T10:34:30;12.60;;;3.53;;
81191;SDS011;70665;47.652;-2.730;2024-02-21T10:37:08;15.63;;;3.97;;
81191;SDS011;70665;47.652;-2.730;2024-02-21T10:39:37;17.95;;;3.70;;
81191;SDS011;70665;47.652;-2.730;2024-02-21T10:42:04;16.10;;;4.15;;
81191;SDS011;70665;47.652;-2.730;2024-02-21T10:44:30;15.02;;;3.30;;
81191;SDS011;70665;47.652;-2.730;2024-02-21T10:46:57;9.48;;;3.65;;
81191;SDS011;70665;47.652;-2.730;2024-02-21T10:49:23;12.25;;;3.42;;
81191;SDS011;70665;47.652;-2.730;2024-02-21T10:52:06;13.27;;;3.70;;
81191;SDS011;70665;47.652;-2.730;2024-02-21T10:57:10;13.80;;;3.45;;
81191;SDS011;70665;47.652;-2.730;2024-02-21T10:59:37;15.77;;;3.42;;
81191;SDS011;70665;47.652;-2.730;2024-02-21T11:02:04;13.68;;;3.60;;
81191;SDS011;70665;47.652;-2.730;2024-02-21T11:04:29;12.30;;;3.53;;
81191;SDS011;70665;47.652;-2.730;2024-02-21T11:07:01;15.05;;;4.07;;
81191;SDS011;70665;47.652;-2.730;2024-02-21T11:09:32;13.70;;;4.30;;
81191;SDS011;70665;47.652;-2.730;2024-02-21T11:11:58;21.58;;;4.55;;
81191;SDS011;70665;47.652;-2.730;2024-02-21T11:14:27;13.20;;;4.20;;
81191;SDS011;70665;47.652;-2.730;2024-02-21T11:16:53;11.38;;;3.40;;
81191;SDS011;70665;47.652;-2.730;2024-02-21T11:19:25;11.68;;;3.33;;
81191;SDS011;70665;47.652;-2.730;2024-02-21T11:21:52;11.07;;;3.40;;
81191;SDS011;70665;47.652;-2.730;2024-02-21T11:24:26;8.73;;;3.55;;
81191;SDS011;70665;47.652;-2.730;2024-02-21T11:27:14;15.30;;;5.03;;
81191;SDS011;70665;47.652;-2.730;2024-02-21T11:29:42;13.57;;;4.60;;
81191;SDS011;70665;47.652;-2.730;2024-02-21T11:32:09;15.98;;;4.70;;
81191;SDS011;70665;47.652;-2.730;2024-02-21T11:34:38;13.93;;;3.97;;
81191;SDS011;70665;47.652;-2.730;2024-02-21T11:37:13;13.95;;;4.55;;
81191;SDS011;70665;47.652;-2.730;2024-02-21T11:39:43;15.60;;;4.45;;
81191;SDS011;70665;47.652;-2.730;2024-02-21T11:42:08;10.95;;;3.03;;
81191;SDS011;70665;47.652;-2.730;2024-02-21T11:44:35;10.88;;;3.78;;
81191;SDS011;70665;47.652;-2.730;2024-02-21T11:47:03;14.55;;;3.45;;
81191;SDS011;70665;47.652;-2.730;2024-02-21T11:49:29;14.15;;;3.20;;
81191;SDS011;70665;47.652;-2.730;2024-02-21T11:52:01;13.57;;;3.78;;
81191;SDS011;70665;47.652;-2.730;2024-02-21T11:54:29;11.45;;;3.75;;
81191;SDS011;70665;47.652;-2.730;2024-02-21T11:59:21;10.90;;;2.88;;
81191;SDS011;70665;47.652;-2.730;2024-02-21T12:01:47;15.88;;;4.22;;
81191;SDS011;70665;47.652;-2.730;2024-02-21T12:04:13;16.08;;;3.95;;
81191;SDS011;70665;47.652;-2.730;2024-02-21T12:06:39;10.57;;;3.13;;
81191;SDS011;70665;47.652;-2.730;2024-02-21T12:09:07;18.20;;;3.25;;
81191;SDS011;70665;47.652;-2.730;2024-02-21T12:11:34;15.23;;;3.60;;
81191;SDS011;70665;47.652;-2.730;2024-02-21T12:14:00;14.75;;;3.95;;
81191;SDS011;70665;47.652;-2.730;2024-02-21T12:16:30;13.52;;;2.90;;
81191;SDS011;70665;47.652;-2.730;2024-02-21T12:18:57;15.57;;;3.65;;
81191;SDS011;70665;47.652;-2.730;2024-02-21T12:21:32;11.57;;;3.42;;
81191;SDS011;70665;47.652;-2.730;2024-02-21T12:23:59;17.85;;;3.72;;
81191;SDS011;70665;47.652;-2.730;2024-02-21T12:26:25;18.73;;;4.28;;
81191;SDS011;70665;47.652;-2.730;2024-02-21T12:28:51;18.20;;;3.75;;
81191;SDS011;70665;47.652;-2.730;2024-02-21T12:31:18;13.10;;;3.63;;
81191;SDS011;70665;47.652;-2.730;2024-02-21T12:33:44;11.85;;;3.70;;
81191;SDS011;70665;47.652;-2.730;2024-02-21T12:36:09;17.88;;;3.50;;
81191;SDS011;70665;47.652;-2.730;2024-02-21T12:38:35;14.65;;;3.85;;
81191;SDS011;70665;47.652;-2.730;2024-02-21T12:41:01;19.88;;;4.95;;
81191;SDS011;70665;47.652;-2.730;2024-02-21T12:43:28;15.35;;;4.93;;
81191;SDS011;70665;47.652;-2.730;2024-02-21T12:45:54;10.45;;;3.63;;
81191;SDS011;70665;47.652;-2.730;2024-02-21T12:48:19;17.00;;;4.32;;
81191;SDS011;70665;47.652;-2.730;2024-02-21T12:50:49;18.58;;;4.50;;
81191;SDS011;70665;47.652;-2.730;2024-02-21T12:53:19;17.45;;;3.47;;
81191;SDS011;70665;47.652;-2.730;2024-02-21T12:55:46;14.02;;;3.33;;
81191;SDS011;70665;47.652;-2.730;2024-02-21T12:58:13;20.90;;;3.80;;
81191;SDS011;70665;47.652;-2.730;2024-02-21T13:00:39;17.42;;;3.97;;
81191;SDS011;70665;47.652;-2.730;2024-02-21T13:05:30;18.52;;;3.65;;
81191;SDS011;70665;47.652;-2.730;2024-02-21T13:07:57;19.02;;;4.63;;
81191;SDS011;70665;47.652;-2.730;2024-02-21T13:10:23;22.90;;;4.28;;
81191;SDS011;70665;47.652;-2.730;2024-02-21T13:12:49;24.40;;;3.90;;
81191;SDS011;70665;47.652;-2.730;2024-02-21T13:15:14;24.63;;;3.90;;
81191;SDS011;70665;47.652;-2.730;2024-02-21T13:17:43;20.33;;;3.60;;
81191;SDS011;70665;47.652;-2.730;2024-02-21T13:20:11;17.77;;;3.90;;
81191;SDS011;70665;47.652;-2.730;2024-02-21T13:22:37;22.60;;;3.70;;
81191;SDS011;70665;47.652;-2.730;2024-02-21T13:25:05;15.18;;;3.58;;
81191;SDS011;70665;47.652;-2.730;2024-02-21T13:27:32;30.88;;;4.38;;
81191;SDS011;70665;47.652;-2.730;2024-02-21T13:29:58;22.88;;;4.85;;
81191;SDS011;70665;47.652;-2.730;2024-02-21T13:32:26;26.30;;;4.28;;
81191;SDS011;70665;47.652;-2.730;2024-02-21T13:34:52;20.63;;;4.82;;
81191;SDS011;70665;47.652;-2.730;2024-02-21T13:37:17;21.23;;;3.70;;
81191;SDS011;70665;47.652;-2.730;2024-02-21T13:39:43;16.88;;;3.47;;
81191;SDS011;70665;47.652;-2.730;2024-02-21T13:42:09;17.58;;;3.35;;
81191;SDS011;70665;47.652;-2.730;2024-02-21T13:44:35;16.17;;;3.80;;
81191;SDS011;70665;47.652;-2.730;2024-02-21T13:47:02;26.30;;;3.95;;
81191;SDS011;70665;47.652;-2.730;2024-02-21T13:49:29;29.88;;;3.95;;
81191;SDS011;70665;47.652;-2.730;2024-02-21T13:51:55;21.52;;;3.70;;
81191;SDS011;70665;47.652;-2.730;2024-02-21T13:54:21;20.65;;;4.05;;
81191;SDS011;70665;47.652;-2.730;2024-02-21T13:56:47;19.13;;;4.78;;
81191;SDS011;70665;47.652;-2.730;2024-02-21T13:59:12;26.98;;;5.78;;
81191;SDS011;70665;47.652;-2.730;2024-02-21T14:04:04;16.92;;;3.60;;
81191;SDS011;70665;47.652;-2.730;2024-02-21T14:08:55;15.43;;;3.10;;
81191;SDS011;70665;47.652;-2.730;2024-02-21T14:11:21;14.27;;;3.78;;
81191;SDS011;70665;47.652;-2.730;2024-02-21T14:16:12;16.40;;;2.80;;
81191;SDS011;70665;47.652;-2.730;2024-02-21T14:21:06;17.50;;;2.95;;
81191;SDS011;70665;47.652;-2.730;2024-02-21T14:23:31;18.00;;;3.40;;
81191;SDS011;70665;47.652;-2.730;2024-02-21T14:25:58;20.45;;;4.07;;
81191;SDS011;70665;47.652;-2.730;2024-02-21T14:28:24;15.20;;;3.08;;
81191;SDS011;70665;47.652;-2.730;2024-02-21T14:30:50;24.20;;;3.83;;
81191;SDS011;70665;47.652;-2.730;2024-02-21T14:33:18;26.08;;;3.33;;
81191;SDS011;70665;47.652;-2.730;2024-02-21T14:35:44;17.17;;;3.70;;
81191;SDS011;70665;47.652;-2.730;2024-02-21T14:38:10;28.08;;;4.15;;
81191;SDS011;70665;47.652;-2.730;2024-02-21T14:43:01;25.52;;;3.33;;
81191;SDS011;70665;47.652;-2.730;2024-02-21T14:45:26;22.48;;;4.45;;
81191;SDS011;70665;47.652;-2.730;2024-02-21T14:47:52;19.35;;;4.43;;
81191;SDS011;70665;47.652;-2.730;2024-02-21T14:50:17;23.85;;;3.90;;
81191;SDS011;70665;47.652;-2.730;2024-02-21T14:52:43;18.83;;;3.28;;
81191;SDS011;70665;47.652;-2.730;2024-02-21T14:55:09;21.55;;;3.85;;
81191;SDS011;70665;47.652;-2.730;2024-02-21T15:00:01;29.48;;;5.03;;
81191;SDS011;70665;47.652;-2.730;2024-02-21T15:02:28;25.10;;;4.53;;
81191;SDS011;70665;47.652;-2.730;2024-02-21T15:04:53;20.50;;;3.03;;
81191;SDS011;70665;47.652;-2.730;2024-02-21T15:07:19;15.40;;;4.90;;
81191;SDS011;70665;47.652;-2.730;2024-02-21T15:09:49;24.92;;;3.50;;
81191;SDS011;70665;47.652;-2.730;2024-02-21T15:12:15;21.75;;;3.67;;
81191;SDS011;70665;47.652;-2.730;2024-02-21T15:14:41;27.17;;;4.28;;
81191;SDS011;70665;47.652;-2.730;2024-02-21T15:17:08;21.65;;;3.63;;